Terminal Aerodrome Forecast
Issued by NWS Shreveport, LA

Home | Current Version | Previous Version | Text Only | Print | Product List | Glossary On
Versions: 1 2 3 4 5 6 7 8 9 10 11 12 13 14 15 16 17 18 19
000
FTUS44 KSHV 291100 CCA
TAFLFK
TAF COR
KLFK 291142Z 2912/3012 36004KT 3SM BR OVC003
      TEMPO 2912/2915 1SM BR BKN006
     FM291500 VRB03KT P6SM OVC006
     FM291900 12003KT P6SM OVC015
     FM292100 12004KT P6SM BKN035
     FM300900 04004KT 2SM BR OVC001=

USA.gov is the U.S. government's official web portal to all federal, state and local government web resources and services.